Time;durP1;ratioP1;P1;durP2;ratioP2;P2;SDS_P1;SDS_P2;PMS_P1;PMS_P2;Temp;Humidity;BMP_temperature;BMP_pressure;BME280_temperature;BME280_humidity;BME280_pressure;Samples;Min_cycle;Max_cycle;Signal;HPM_P1;HPM_P2
2023/04/20 00:00:50;;;;;;;2.85;1.80;;;14.80;54.60;;;;;;4194520;28;20059;-64
2023/04/20 00:03:32;;;;;;;2.42;2.03;;;14.80;54.70;;;;;;4194107;28;20410;-64
2023/04/20 00:06:14;;;;;;;2.58;1.58;;;14.80;55.60;;;;;;4194270;28;20074;-63
2023/04/20 00:08:56;;;;;;;;;;;14.80;54.80;;;;;;4195049;28;20072;-63
2023/04/20 00:11:37;;;;;;;6.25;2.13;;;14.80;54.80;;;;;;4193952;28;19950;-63
2023/04/20 00:14:18;;;;;;;3.67;1.95;;;14.80;55.20;;;;;;4193830;28;20051;-63
2023/04/20 00:16:59;;;;;;;2.13;1.63;;;14.80;55.00;;;;;;4176401;28;20380;-63
2023/04/20 00:19:39;;;;;;;3.37;1.60;;;14.80;55.50;;;;;;4177767;28;20125;-64
2023/04/20 00:22:20;;;;;;;2.50;1.70;;;14.80;54.80;;;;;;4183383;28;20198;-64
2023/04/20 00:25:03;;;;;;;11.63;2.63;;;14.80;55.80;;;;;;4192798;28;20067;-64
2023/04/20 00:27:44;;;;;;;2.05;1.80;;;14.80;55.20;;;;;;4194432;28;20048;-63
2023/04/20 00:30:25;;;;;;;3.22;1.63;;;14.80;55.20;;;;;;4193207;28;20094;-64
2023/04/20 00:33:06;;;;;;;1.97;1.63;;;14.80;55.10;;;;;;4193993;28;20692;-63
2023/04/20 00:35:47;;;;;;;3.55;1.65;;;14.80;55.00;;;;;;4193119;28;20769;-63
2023/04/20 00:38:29;;;;;;;3.60;1.73;;;14.70;55.20;;;;;;4193009;28;20060;-63
2023/04/20 00:41:13;;;;;;;1.65;1.55;;;14.70;55.10;;;;;;4193899;28;20047;-63
2023/04/20 00:43:54;;;;;;;1.67;1.60;;;14.70;55.10;;;;;;4176106;28;20047;-63
2023/04/20 00:46:35;;;;;;;1.83;1.73;;;14.70;55.20;;;;;;4192650;28;20059;-63
2023/04/20 00:49:17;;;;;;;4.03;1.83;;;14.70;55.30;;;;;;4193920;28;20507;-63
2023/04/20 00:51:59;;;;;;;4.10;1.83;;;14.70;55.30;;;;;;4192411;28;20178;-63
2023/04/20 00:54:40;;;;;;;1.90;1.52;;;14.80;55.60;;;;;;4193771;28;20383;-63
2023/04/20 00:57:23;;;;;;;;;;;14.70;55.50;;;;;;4193760;28;20403;-63
2023/04/20 01:00:06;;;;;;;4.07;1.70;;;14.70;55.50;;;;;;4192070;28;20082;-63
2023/04/20 01:02:47;;;;;;;3.63;1.90;;;14.70;55.80;;;;;;4192843;28;20058;-63
2023/04/20 01:05:28;;;;;;;4.35;1.65;;;14.70;56.60;;;;;;4193693;28;20066;-63
2023/04/20 01:08:10;;;;;;;2.40;1.45;;;14.70;55.90;;;;;;4192379;28;20482;-63
2023/04/20 01:10:50;;;;;;;4.10;1.63;;;14.70;55.90;;;;;;4193047;28;20117;-63
2023/04/20 01:13:32;;;;;;;2.08;1.60;;;14.70;56.10;;;;;;4193537;28;20055;-63
2023/04/20 01:16:13;;;;;;;3.20;2.05;;;14.70;56.50;;;;;;4193516;28;20144;-63
2023/04/20 01:18:56;;;;;;;2.10;1.90;;;14.70;56.40;;;;;;4192844;28;20055;-63
2023/04/20 01:21:37;;;;;;;6.13;1.77;;;14.70;56.50;;;;;;4192871;28;20121;-63
2023/04/20 01:24:20;;;;;;;2.97;1.70;;;14.70;56.50;;;;;;4193372;28;20294;-64
2023/04/20 01:27:01;;;;;;;2.33;2.00;;;14.70;56.80;;;;;;4193059;28;20509;-63
2023/04/20 01:29:42;;;;;;;4.45;1.90;;;14.70;56.90;;;;;;4192914;28;20052;-63
2023/04/20 01:32:23;;;;;;;2.28;2.03;;;14.70;56.80;;;;;;4191778;28;20125;-64
2023/04/20 01:35:04;;;;;;;2.97;1.63;;;14.70;57.10;;;;;;4192767;28;20056;-63
2023/04/20 01:37:45;;;;;;;2.65;1.58;;;14.70;57.10;;;;;;4193187;28;20102;-63
2023/04/20 01:40:27;;;;;;;4.50;1.60;;;14.70;57.40;;;;;;4191719;28;20051;-63
2023/04/20 01:43:08;;;;;;;2.67;2.05;;;14.70;57.30;;;;;;4191614;28;20048;-63
2023/04/20 01:45:49;;;;;;;4.55;1.95;;;14.70;57.20;;;;;;4192766;28;20092;-63
2023/04/20 01:48:31;;;;;;;4.07;1.90;;;14.70;57.20;;;;;;4192458;28;20051;-62
2023/04/20 01:51:12;;;;;;;7.78;2.22;;;14.70;57.10;;;;;;4186936;28;20047;-63
2023/04/20 01:53:53;;;;;;;5.90;1.90;;;14.60;57.20;;;;;;4191571;28;20193;-63
2023/04/20 01:56:35;;;;;;;6.33;2.13;;;14.60;57.60;;;;;;4192481;28;20047;-63
2023/04/20 01:59:16;;;;;;;4.40;1.88;;;14.60;57.50;;;;;;4191268;28;20278;-63
2023/04/20 02:01:57;;;;;;;4.07;2.08;;;14.60;57.70;;;;;;4191418;28;20059;-62
2023/04/20 02:04:38;;;;;;;3.90;2.20;;;14.60;57.60;;;;;;4191337;28;20047;-63
2023/04/20 02:07:20;;;;;;;6.45;2.08;;;14.60;57.90;;;;;;4191129;28;20051;-63
2023/04/20 02:10:00;;;;;;;4.63;1.77;;;14.60;57.90;;;;;;4192757;28;20125;-63
2023/04/20 02:12:43;;;;;;;9.38;2.03;;;14.60;58.20;;;;;;4191646;28;20383;-63
2023/04/20 02:15:24;;;;;;;2.58;1.67;;;14.60;58.00;;;;;;4174782;28;20051;-63
2023/04/20 02:18:05;;;;;;;3.23;1.90;;;14.60;58.40;;;;;;4176005;28;20110;-63
2023/04/20 02:20:46;;;;;;;6.20;2.40;;;14.60;58.30;;;;;;4192363;28;20055;-63
2023/04/20 02:23:27;;;;;;;4.55;2.03;;;14.60;58.20;;;;;;4191306;28;20183;-63
2023/04/20 02:26:08;;;;;;;4.40;1.83;;;14.50;58.30;;;;;;4192369;28;20880;-63
2023/04/20 02:28:50;;;;;;;5.43;1.80;;;14.50;58.20;;;;;;4192465;28;20314;-63
2023/04/20 02:31:31;;;;;;;4.50;2.10;;;14.50;58.10;;;;;;4192519;28;20056;-63
2023/04/20 02:34:12;;;;;;;6.38;2.20;;;14.50;57.90;;;;;;4190967;28;20093;-63
2023/04/20 02:36:52;;;;;;;4.25;1.95;;;14.50;58.00;;;;;;4192072;28;20055;-66
2023/04/20 02:39:34;;;;;;;4.57;1.90;;;14.50;57.80;;;;;;4192021;28;20048;-67
2023/04/20 02:42:14;;;;;;;3.95;2.00;;;14.50;57.90;;;;;;4190711;28;20125;-63
2023/04/20 02:44:57;;;;;;;3.30;2.15;;;14.50;57.70;;;;;;4190733;28;20313;-63
2023/04/20 02:47:38;;;;;;;4.85;2.13;;;14.50;57.40;;;;;;4190668;28;20059;-63
2023/04/20 02:50:20;;;;;;;4.13;1.85;;;14.50;57.30;;;;;;4190654;28;20055;-63
2023/04/20 02:53:23;;;;;;;3.22;1.98;;;14.50;57.20;;;;;;4192068;28;20059;-63
2023/04/20 02:56:22;;;;;;;6.65;1.85;;;14.50;56.40;;;;;;4191628;28;20059;-63
2023/04/20 02:59:09;;;;;;;3.97;2.50;;;14.50;56.20;;;;;;4190957;28;20589;-63
2023/04/20 03:02:02;;;;;;;3.58;2.13;;;14.40;56.20;;;;;;4174609;28;20514;-63
2023/04/20 03:04:43;;;;;;;4.20;2.28;;;14.40;55.40;;;;;;4175657;28;20497;-63
2023/04/20 03:07:33;;;;;;;4.05;2.17;;;14.40;55.40;;;;;;4182031;28;20051;-63
2023/04/20 03:10:15;;;;;;;3.03;2.40;;;14.40;55.70;;;;;;4191092;28;20115;-63
2023/04/20 03:13:18;;;;;;;3.40;1.95;;;14.40;55.80;;;;;;4190499;28;20427;-63
2023/04/20 03:16:12;;;;;;;4.18;1.90;;;14.40;55.70;;;;;;4185452;28;20060;-63
2023/04/20 03:18:59;;;;;;;3.05;1.95;;;14.30;55.70;;;;;;4189028;28;20055;-63
2023/04/20 03:21:40;;;;;;;4.68;2.13;;;14.30;56.00;;;;;;4174493;28;20055;-63
2023/04/20 03:24:22;;;;;;;4.47;2.28;;;14.30;56.00;;;;;;4187339;28;20187;-63
2023/04/20 03:27:03;;;;;;;4.32;1.83;;;14.30;56.00;;;;;;4177236;28;20064;-63
2023/04/20 03:29:56;;;;;;;2.80;1.75;;;14.30;56.20;;;;;;4185856;28;20453;-64
2023/04/20 03:32:37;;;;;;;3.72;1.90;;;14.30;56.10;;;;;;4194106;28;20183;-63
2023/04/20 03:35:20;;;;;;;2.90;1.98;;;14.30;55.70;;;;;;4195054;28;20177;-63
2023/04/20 03:38:01;;;;;;;3.20;1.80;;;14.30;55.90;;;;;;4194388;28;20066;-63
2023/04/20 03:40:42;;;;;;;5.18;1.98;;;14.30;55.70;;;;;;4194151;28;20205;-63
2023/04/20 03:43:23;;;;;;;4.75;1.95;;;14.30;55.70;;;;;;4194127;28;20066;-63
2023/04/20 03:46:04;;;;;;;5.00;1.70;;;14.30;56.10;;;;;;4193298;28;20468;-63
2023/04/20 03:48:45;;;;;;;2.63;2.17;;;14.30;55.30;;;;;;4193307;28;20051;-63
2023/04/20 03:51:28;;;;;;;3.10;1.85;;;14.30;55.40;;;;;;4182200;28;20122;-63
2023/04/20 03:54:10;;;;;;;1.83;1.70;;;14.30;55.30;;;;;;4194739;28;20059;-63
2023/04/20 03:56:52;;;;;;;;;;;14.20;53.90;;;;;;4194178;28;20170;-63
2023/04/20 03:59:34;;;;;;;2.97;1.85;;;14.20;55.20;;;;;;4193254;28;19947;-63
2023/04/20 04:02:17;;;;;;;3.55;1.92;;;14.20;54.00;;;;;;4192503;28;20066;-63
2023/04/20 04:04:59;;;;;;;2.08;1.88;;;14.20;53.70;;;;;;4194561;28;20055;-63
2023/04/20 04:07:41;;;;;;;3.63;2.20;;;14.20;54.40;;;;;;4193234;28;20077;-63
2023/04/20 04:10:23;;;;;;;2.10;1.90;;;14.20;54.40;;;;;;4193194;28;20087;-63
2023/04/20 04:13:04;;;;;;;2.88;2.08;;;14.20;54.50;;;;;;4193045;28;20183;-63
2023/04/20 04:15:45;;;;;;;3.72;2.20;;;14.10;53.80;;;;;;4193152;28;20502;-63
2023/04/20 04:18:31;;;;;;;2.65;1.83;;;14.10;54.10;;;;;;4185208;28;20246;-63
2023/04/20 04:21:14;;;;;;;9.10;2.17;;;14.10;53.60;;;;;;4176099;28;20121;-63
2023/04/20 04:24:01;;;;;;;3.95;1.65;;;14.10;53.30;;;;;;4175946;28;20503;-63
2023/04/20 04:26:48;;;;;;;4.78;1.73;;;14.10;53.90;;;;;;4182303;28;20063;-63
2023/04/20 04:29:30;;;;;;;;;;;14.10;54.00;;;;;;4193124;28;20056;-63
2023/04/20 04:32:16;;;;;;;3.40;1.92;;;14.00;53.90;;;;;;4192710;28;20421;-63
2023/04/20 04:34:59;;;;;;;4.30;2.03;;;14.00;53.90;;;;;;4193417;28;20055;-63
2023/04/20 04:37:41;;;;;;;4.40;2.00;;;14.00;53.20;;;;;;4192537;28;20051;-63
2023/04/20 04:40:24;;;;;;;6.40;2.15;;;14.10;53.30;;;;;;4178848;28;20060;-63
2023/04/20 04:43:08;;;;;;;2.80;1.88;;;14.00;54.00;;;;;;4192626;28;20058;-63
2023/04/20 04:45:52;;;;;;;4.32;1.73;;;14.00;54.20;;;;;;4192821;28;20059;-63
2023/04/20 04:48:34;;;;;;;4.53;1.63;;;14.00;54.10;;;;;;4192502;28;20055;-63
2023/04/20 04:51:17;;;;;;;4.97;1.80;;;14.00;54.10;;;;;;4193347;28;20051;-63
2023/04/20 04:53:58;;;;;;;2.35;1.60;;;14.00;54.20;;;;;;4193610;28;20403;-64
2023/04/20 04:56:40;;;;;;;3.10;2.05;;;14.00;54.50;;;;;;4193440;28;20051;-64
2023/04/20 04:59:21;;;;;;;5.07;2.28;;;14.00;54.60;;;;;;4193327;28;20052;-63
2023/04/20 05:02:02;;;;;;;5.80;1.95;;;14.00;55.30;;;;;;4193619;28;20059;-64
2023/04/20 05:04:43;;;;;;;4.45;2.35;;;13.90;55.50;;;;;;4193303;28;20437;-64
2023/04/20 05:07:25;;;;;;;5.95;2.00;;;14.00;55.60;;;;;;4192282;28;20074;-63
2023/04/20 05:10:07;;;;;;;3.72;2.00;;;14.00;55.30;;;;;;4177173;28;20055;-63
2023/04/20 05:12:51;;;;;;;3.85;2.30;;;13.90;55.20;;;;;;4175804;28;20063;-63
2023/04/20 05:15:32;;;;;;;5.28;2.00;;;13.90;55.50;;;;;;4176895;28;20051;-63
2023/04/20 05:18:13;;;;;;;2.65;1.67;;;13.90;55.50;;;;;;4183305;28;20122;-63
2023/04/20 05:20:54;;;;;;;2.55;2.22;;;13.90;55.60;;;;;;4193119;28;20047;-63
2023/04/20 05:23:35;;;;;;;2.38;1.98;;;13.90;55.20;;;;;;4193072;28;20051;-63
2023/04/20 05:26:17;;;;;;;3.03;2.05;;;13.90;55.30;;;;;;4193296;28;20499;-62
2023/04/20 05:29:00;;;;;;;4.78;1.60;;;13.90;55.80;;;;;;4192805;28;20052;-63
2023/04/20 05:31:41;;;;;;;4.47;2.08;;;13.90;55.70;;;;;;4193274;28;20047;-63
2023/04/20 05:34:22;;;;;;;4.50;2.03;;;13.90;55.60;;;;;;4192684;28;20131;-63
2023/04/20 05:37:05;;;;;;;2.63;1.58;;;13.90;56.00;;;;;;4192877;28;20082;-63
2023/04/20 05:39:46;;;;;;;2.15;1.77;;;13.90;55.80;;;;;;4176341;28;20096;-63
2023/04/20 05:42:27;;;;;;;4.05;1.90;;;13.90;56.20;;;;;;4176241;28;20064;-63
2023/04/20 05:45:11;;;;;;;3.97;1.98;;;13.90;56.20;;;;;;4176267;28;20179;-63
2023/04/20 05:47:53;;;;;;;3.97;2.20;;;13.80;56.00;;;;;;4181584;28;20098;-64
2023/04/20 05:50:33;;;;;;;;;;;13.90;56.30;;;;;;4193240;28;20157;-63
2023/04/20 05:53:14;;;;;;;2.65;2.25;;;13.90;57.50;;;;;;4192408;28;20054;-62
2023/04/20 05:55:55;;;;;;;2.50;1.80;;;13.90;57.10;;;;;;4192669;28;20051;-63
2023/04/20 05:58:37;;;;;;;2.93;2.03;;;13.90;57.00;;;;;;4192321;28;20097;-64
2023/04/20 06:01:19;;;;;;;3.13;2.30;;;13.80;57.10;;;;;;4191557;28;20059;-63
2023/04/20 06:04:00;;;;;;;2.95;2.05;;;13.80;56.50;;;;;;4192762;28;20055;-63
2023/04/20 06:06:41;;;;;;;4.00;2.35;;;13.80;56.60;;;;;;4192016;28;20220;-63
2023/04/20 06:09:22;;;;;;;2.67;2.00;;;13.80;56.80;;;;;;4181683;28;20055;-63
2023/04/20 06:12:04;;;;;;;3.60;2.42;;;13.80;57.10;;;;;;4192359;28;20054;-63
2023/04/20 06:14:45;;;;;;;2.40;2.13;;;13.80;57.00;;;;;;4192337;28;20182;-63
2023/04/20 06:17:28;;;;;;;2.97;2.00;;;13.80;57.20;;;;;;4192077;28;20140;-63
2023/04/20 06:20:11;;;;;;;4.88;1.88;;;13.80;57.70;;;;;;4191874;28;20047;-63
2023/04/20 06:22:52;;;;;;;4.93;2.38;;;13.80;57.30;;;;;;4192589;28;20079;-62
2023/04/20 06:25:33;;;;;;;3.80;1.65;;;13.80;57.80;;;;;;4192435;28;20158;-63
2023/04/20 06:28:14;;;;;;;5.45;2.25;;;13.80;57.60;;;;;;4191444;28;20064;-63
2023/04/20 06:30:55;;;;;;;3.07;1.57;;;13.70;57.80;;;;;;4181232;28;20138;-63
2023/04/20 06:33:37;;;;;;;2.40;1.63;;;13.70;57.80;;;;;;4192441;28;20289;-63
2023/04/20 06:36:18;;;;;;;2.20;1.75;;;13.70;57.70;;;;;;4192496;28;20043;-63
2023/04/20 06:38:59;;;;;;;2.55;1.98;;;13.70;57.80;;;;;;4175839;28;20183;-63
2023/04/20 06:41:39;;;;;;;2.58;2.20;;;13.70;57.50;;;;;;4175737;28;20051;-63
2023/04/20 06:44:20;;;;;;;1.70;1.60;;;13.70;57.90;;;;;;4177092;28;20171;-63
2023/04/20 06:47:01;;;;;;;4.40;2.03;;;13.70;58.30;;;;;;4192134;28;20071;-63
2023/04/20 06:49:44;;;;;;;3.97;2.20;;;13.70;58.30;;;;;;4192064;28;20056;-63
2023/04/20 06:52:25;;;;;;;2.20;1.88;;;13.70;58.60;;;;;;4191163;28;20051;-63
2023/04/20 06:55:07;;;;;;;5.13;1.92;;;13.70;58.80;;;;;;4192062;28;20181;-63
2023/04/20 06:57:47;;;;;;;3.80;1.95;;;13.70;58.60;;;;;;4191888;28;21730;-63
2023/04/20 07:00:28;;;;;;;3.47;2.00;;;13.60;58.60;;;;;;4195319;28;20125;-63
2023/04/20 07:03:09;;;;;;;2.50;2.30;;;13.70;59.00;;;;;;4195641;28;20051;-63
2023/04/20 07:05:51;;;;;;;4.40;2.15;;;13.60;58.80;;;;;;4195396;28;20043;-63
2023/04/20 07:08:32;;;;;;;3.70;1.90;;;13.60;59.00;;;;;;4195569;28;20059;-62
2023/04/20 07:11:13;;;;;;;3.07;2.53;;;13.60;60.20;;;;;;4195290;28;20048;-63
2023/04/20 07:13:53;;;;;;;2.95;2.00;;;13.60;59.70;;;;;;4194229;28;20197;-64
2023/04/20 07:16:34;;;;;;;3.28;1.98;;;13.60;59.70;;;;;;4178627;28;20052;-64
2023/04/20 07:19:15;;;;;;;4.57;1.97;;;13.60;59.60;;;;;;4186872;28;20074;-63
2023/04/20 07:21:58;;;;;;;5.00;2.47;;;13.60;59.80;;;;;;4195344;28;20051;-63
2023/04/20 07:24:39;;;;;;;2.05;1.70;;;13.60;60.70;;;;;;4184239;28;20102;-63
2023/04/20 07:27:20;;;;;;;4.03;1.70;;;13.60;60.30;;;;;;4195167;28;20895;-63
2023/04/20 07:30:01;;;;;;;4.32;2.20;;;13.60;60.30;;;;;;4194445;28;20075;-68
2023/04/20 07:32:42;;;;;;;2.70;1.80;;;13.60;61.20;;;;;;4195006;28;20064;-67
2023/04/20 07:35:23;;;;;;;2.20;2.00;;;13.60;60.20;;;;;;4194381;28;20289;-67
2023/04/20 07:38:05;;;;;;;3.40;2.10;;;13.60;60.70;;;;;;4194401;28;20213;-66
2023/04/20 07:40:46;;;;;;;2.95;2.42;;;13.60;61.60;;;;;;4194612;28;20056;-66
2023/04/20 07:43:27;;;;;;;2.28;2.17;;;13.60;61.50;;;;;;4194501;28;20052;-66
2023/04/20 07:46:08;;;;;;;3.05;2.33;;;13.60;61.20;;;;;;4194629;28;20056;-66
2023/04/20 07:48:49;;;;;;;2.45;2.00;;;13.70;61.50;;;;;;4193848;28;20186;-66
2023/04/20 07:51:31;;;;;;;2.30;2.10;;;13.60;60.90;;;;;;4194162;28;20187;-66
2023/04/20 07:54:13;;;;;;;;;;;13.60;61.50;;;;;;4194388;28;20600;-66
2023/04/20 07:56:53;;;;;;;5.57;2.05;;;13.60;61.50;;;;;;4194604;28;19931;-66
2023/04/20 07:59:34;;;;;;;3.22;2.13;;;13.60;61.40;;;;;;4193337;28;20048;-67
2023/04/20 08:02:16;;;;;;;5.10;2.15;;;13.60;61.40;;;;;;4194231;28;20078;-67
2023/04/20 08:05:02;;;;;;;3.95;2.85;;;13.60;61.40;;;;;;4194544;28;20526;-67
2023/04/20 08:07:43;;;;;;;3.42;2.42;;;13.60;61.30;;;;;;4194525;28;20056;-68
2023/04/20 08:10:26;;;;;;;3.17;2.53;;;13.60;61.50;;;;;;4191703;28;20048;-67
2023/04/20 08:13:06;;;;;;;2.63;2.40;;;13.60;61.00;;;;;;4193876;28;20050;-66
2023/04/20 08:15:48;;;;;;;3.55;2.60;;;13.60;61.30;;;;;;4194273;28;20055;-66
2023/04/20 08:18:30;;;;;;;3.63;2.58;;;13.60;61.30;;;;;;4192961;28;20070;-68
2023/04/20 08:21:11;;;;;;;4.60;2.80;;;13.60;61.70;;;;;;4193940;28;20055;-66
2023/04/20 08:23:52;;;;;;;4.10;2.83;;;13.60;61.20;;;;;;4194391;28;20051;-66
2023/04/20 08:26:35;;;;;;;3.37;2.63;;;13.60;61.20;;;;;;4194497;28;20055;-67
2023/04/20 08:29:16;;;;;;;3.53;2.80;;;13.60;61.00;;;;;;4194160;28;20806;-67
2023/04/20 08:31:57;;;;;;;3.17;2.88;;;13.50;61.20;;;;;;4194282;28;20117;-66
2023/04/20 08:34:38;;;;;;;5.23;3.10;;;13.50;61.60;;;;;;4194397;28;20391;-66
2023/04/20 08:37:19;;;;;;;4.90;3.10;;;13.50;61.80;;;;;;4194231;28;20318;-66
2023/04/20 08:40:00;;;;;;;4.28;3.13;;;13.50;61.90;;;;;;4193967;28;20141;-66
2023/04/20 08:42:42;;;;;;;3.90;3.23;;;13.50;62.50;;;;;;4193852;28;20050;-65
2023/04/20 08:45:23;;;;;;;3.65;3.10;;;13.50;61.70;;;;;;4193611;28;20056;-66
2023/04/20 08:48:07;;;;;;;6.03;3.40;;;13.50;61.70;;;;;;4193607;28;20197;-66
2023/04/20 08:50:49;;;;;;;5.07;3.35;;;13.50;61.70;;;;;;4193318;28;20097;-66
2023/04/20 08:53:30;;;;;;;3.80;3.50;;;13.50;61.90;;;;;;4194016;28;20047;-66
2023/04/20 08:56:11;;;;;;;4.93;3.15;;;13.50;62.00;;;;;;4177108;28;20122;-68
2023/04/20 08:58:56;;;;;;;5.88;3.33;;;13.50;62.50;;;;;;4179171;28;20080;-66
2023/04/20 09:01:40;;;;;;;3.35;3.08;;;13.60;62.80;;;;;;4193312;28;20502;-67
2023/04/20 09:04:22;;;;;;;4.78;3.33;;;14.00;62.50;;;;;;4193679;28;20047;-68
2023/04/20 09:07:04;;;;;;;5.03;2.97;;;14.50;60.90;;;;;;4193417;28;20059;-69
2023/04/20 09:09:55;;;;;;;4.28;3.72;;;15.10;59.30;;;;;;4191866;28;20059;-69
2023/04/20 09:12:41;;;;;;;5.03;3.65;;;15.70;58.00;;;;;;4183098;28;20093;-68
2023/04/20 09:15:28;;;;;;;5.65;3.67;;;16.30;56.00;;;;;;4193076;28;20141;-68
2023/04/20 09:18:14;;;;;;;3.72;2.88;;;16.90;55.00;;;;;;4176275;28;20052;-68
2023/04/20 09:20:55;;;;;;;5.60;3.58;;;17.40;53.60;;;;;;4176800;28;20056;-68
2023/04/20 09:23:36;;;;;;;5.68;2.85;;;17.70;52.70;;;;;;4176468;28;20060;-68
2023/04/20 09:26:18;;;;;;;4.18;2.95;;;18.00;51.90;;;;;;4191700;28;20071;-71
2023/04/20 09:28:59;;;;;;;5.05;3.53;;;18.10;51.10;;;;;;4192701;28;20102;-69
2023/04/20 09:31:42;;;;;;;3.55;3.22;;;18.10;50.90;;;;;;4192866;28;20515;-69
2023/04/20 09:34:24;;;;;;;3.50;3.05;;;18.00;51.40;;;;;;4192809;28;20051;-69
2023/04/20 09:37:05;;;;;;;3.65;3.33;;;17.90;51.50;;;;;;4191722;28;20094;-68
2023/04/20 09:39:47;;;;;;;5.45;3.17;;;17.70;51.90;;;;;;4178056;28;20102;-68
2023/04/20 09:42:29;;;;;;;2.95;2.40;;;17.60;52.60;;;;;;4192576;28;20048;-70
2023/04/20 09:45:15;;;;;;;5.22;2.85;;;17.40;52.70;;;;;;4192216;28;20055;-68
2023/04/20 09:47:58;;;;;;;5.85;3.22;;;17.40;53.00;;;;;;4190879;28;20514;-69
2023/04/20 09:50:39;;;;;;;3.60;3.10;;;17.30;53.30;;;;;;4175952;28;20055;-68
2023/04/20 09:53:31;;;;;;;3.40;3.00;;;17.20;53.40;;;;;;4191540;28;20055;-68
2023/04/20 09:56:13;;;;;;;3.80;3.15;;;17.10;54.50;;;;;;4192670;28;20051;-68
2023/04/20 09:58:55;;;;;;;3.50;2.90;;;17.00;54.10;;;;;;4192741;28;20048;-68
2023/04/20 10:01:36;;;;;;;;;;;17.00;54.20;;;;;;4192760;28;20052;-70
2023/04/20 10:04:19;;;;;;;3.85;3.05;;;17.00;54.20;;;;;;4184602;28;19927;-68
2023/04/20 10:07:04;;;;;;;6.25;3.28;;;16.90;54.30;;;;;;4192629;28;20107;-69
2023/04/20 10:09:46;;;;;;;3.30;3.00;;;16.90;54.60;;;;;;4178229;28;20056;-68
2023/04/20 10:12:27;;;;;;;5.65;3.05;;;16.80;54.70;;;;;;4191820;28;20173;-68
2023/04/20 10:15:09;;;;;;;3.60;3.25;;;16.80;55.10;;;;;;4191966;28;20048;-68
2023/04/20 10:17:50;;;;;;;4.50;3.65;;;16.70;55.30;;;;;;4175776;28;20138;-68
2023/04/20 10:20:33;;;;;;;4.57;3.70;;;16.70;55.40;;;;;;4178311;28;20063;-68
2023/04/20 10:23:15;;;;;;;3.97;3.20;;;16.70;55.30;;;;;;4176190;28;20052;-69
2023/04/20 10:25:57;;;;;;;3.67;3.38;;;16.60;55.40;;;;;;4184215;28;20609;-68
2023/04/20 10:28:39;;;;;;;5.47;3.45;;;16.50;55.50;;;;;;4191646;28;20083;-68
2023/04/20 10:31:20;;;;;;;4.93;3.50;;;16.50;56.50;;;;;;4191782;28;20079;-68
2023/04/20 10:34:01;;;;;;;;;;;16.30;56.00;;;;;;4180439;28;20046;-68
2023/04/20 10:36:43;;;;;;;6.57;3.35;;;16.30;56.60;;;;;;4179043;28;19932;-68
2023/04/20 10:39:26;;;;;;;4.82;3.53;;;16.20;57.00;;;;;;4191862;28;20491;-68
2023/04/20 10:42:07;;;;;;;6.40;3.40;;;16.20;57.30;;;;;;4191893;28;20189;-68
2023/04/20 10:44:48;;;;;;;4.30;3.85;;;16.20;57.30;;;;;;4192404;28;20125;-69
2023/04/20 10:47:30;;;;;;;6.25;3.63;;;16.20;57.20;;;;;;4175349;28;20052;-69
2023/04/20 10:50:12;;;;;;;5.78;3.83;;;16.10;57.40;;;;;;4176623;28;20907;-68
2023/04/20 10:52:54;;;;;;;4.72;3.95;;;16.10;57.60;;;;;;4182489;28;20056;-69
2023/04/20 10:55:35;;;;;;;7.45;4.28;;;16.20;57.70;;;;;;4190767;28;20047;-68
2023/04/20 10:58:23;;;;;;;5.60;4.18;;;16.30;57.30;;;;;;4175008;28;20056;-69
2023/04/20 11:01:05;;;;;;;5.90;3.78;;;16.30;57.10;;;;;;4183125;28;20178;-69
2023/04/20 11:03:50;;;;;;;4.88;3.88;;;16.30;57.00;;;;;;4191959;28;20067;-68
2023/04/20 11:06:31;;;;;;;5.47;3.55;;;16.30;57.10;;;;;;4175597;28;20802;-68
2023/04/20 11:09:21;;;;;;;;;;;16.30;57.30;;;;;;4176237;28;20115;-67
2023/04/20 11:12:03;;;;;;;6.15;3.78;;;16.30;57.20;;;;;;4189659;28;20017;-66
2023/04/20 11:14:52;;;;;;;7.70;4.32;;;16.40;57.20;;;;;;4191602;28;20062;-65
2023/04/20 11:17:33;;;;;;;5.78;4.45;;;16.40;57.40;;;;;;4190256;28;20056;-66
2023/04/20 11:20:16;;;;;;;6.63;4.18;;;16.30;57.40;;;;;;4186910;28;20534;-66
2023/04/20 11:22:58;;;;;;;5.20;4.60;;;16.30;57.60;;;;;;4182307;28;20060;-67
2023/04/20 11:25:51;;;;;;;5.10;4.63;;;16.30;57.60;;;;;;4190769;28;20131;-67
2023/04/20 11:28:33;;;;;;;6.72;4.40;;;16.30;57.60;;;;;;4174877;28;20052;-67
2023/04/20 11:31:17;;;;;;;8.43;4.70;;;16.20;57.60;;;;;;4191219;28;20525;-67
2023/04/20 11:33:58;;;;;;;7.55;4.88;;;16.20;57.90;;;;;;4191278;28;20106;-65
2023/04/20 11:36:40;;;;;;;5.38;4.72;;;16.10;58.00;;;;;;4180469;28;20048;-65
2023/04/20 11:39:25;;;;;;;5.53;4.93;;;16.00;58.30;;;;;;4191461;28;20125;-65
2023/04/20 11:42:07;;;;;;;7.43;5.28;;;16.00;58.60;;;;;;4191854;28;20137;-64
2023/04/20 11:44:48;;;;;;;5.50;4.95;;;16.10;58.70;;;;;;4192016;28;20873;-65
2023/04/20 11:47:29;;;;;;;6.32;5.75;;;16.20;58.50;;;;;;4194390;28;20047;-64
2023/04/20 11:50:11;;;;;;;5.30;4.80;;;16.30;58.70;;;;;;4194096;28;20352;-65
2023/04/20 11:52:51;;;;;;;6.30;5.20;;;16.20;58.60;;;;;;4183737;28;20521;-65
2023/04/20 11:55:32;;;;;;;8.23;5.95;;;16.30;58.50;;;;;;4189966;28;20056;-65
2023/04/20 11:58:14;;;;;;;6.40;5.63;;;16.30;58.40;;;;;;4178192;28;20098;-65
2023/04/20 12:00:55;;;;;;;6.55;5.80;;;16.30;58.20;;;;;;4178161;28;20106;-66
2023/04/20 12:03:36;;;;;;;7.30;6.43;;;16.30;58.00;;;;;;4193022;28;20105;-64
2023/04/20 12:06:17;;;;;;;7.57;5.75;;;16.30;57.80;;;;;;4194624;28;20043;-64
2023/04/20 12:08:59;;;;;;;9.15;6.20;;;16.20;57.90;;;;;;4193932;28;20046;-64
2023/04/20 12:11:39;;;;;;;7.07;6.40;;;16.20;58.30;;;;;;4177557;28;20510;-65
2023/04/20 12:14:22;;;;;;;6.93;6.00;;;16.20;58.60;;;;;;4176334;28;20094;-64
2023/04/20 12:17:04;;;;;;;6.30;5.13;;;16.10;58.60;;;;;;4177733;28;20410;-64
2023/04/20 12:19:45;;;;;;;6.82;5.95;;;16.20;58.40;;;;;;4185054;28;20498;-64
2023/04/20 12:22:26;;;;;;;6.07;5.47;;;16.20;58.20;;;;;;4193406;28;20060;-64
2023/04/20 12:25:08;;;;;;;9.20;6.70;;;16.20;58.00;;;;;;4193076;28;20171;-65
2023/04/20 12:27:48;;;;;;;8.05;6.55;;;16.20;58.30;;;;;;4192039;28;20055;-64
2023/04/20 12:30:31;;;;;;;7.00;5.57;;;16.20;58.60;;;;;;4193963;28;20055;-64
2023/04/20 12:33:12;;;;;;;7.53;6.28;;;16.10;58.60;;;;;;4186792;28;20047;-64
2023/04/20 12:35:53;;;;;;;7.65;6.00;;;16.10;58.80;;;;;;4193686;28;20052;-65
2023/04/20 12:38:35;;;;;;;6.53;5.93;;;16.00;58.90;;;;;;4193424;28;20522;-64
2023/04/20 12:41:16;;;;;;;6.85;5.13;;;16.00;59.10;;;;;;4192545;28;20336;-65
2023/04/20 12:43:57;;;;;;;;;;;15.90;59.30;;;;;;4193946;28;20079;-64
2023/04/20 12:46:39;;;;;;;7.28;5.75;;;15.90;59.70;;;;;;4193137;28;20336;-64
2023/04/20 12:49:20;;;;;;;6.25;5.65;;;15.80;60.00;;;;;;4186391;28;20141;-64
2023/04/20 12:52:02;;;;;;;6.38;5.78;;;15.80;60.10;;;;;;4192352;28;20055;-64
2023/04/20 12:54:43;;;;;;;6.05;5.45;;;15.70;60.40;;;;;;4193298;28;20105;-63
2023/04/20 12:57:24;;;;;;;5.82;5.25;;;15.70;60.50;;;;;;4177137;28;20047;-64
2023/04/20 13:00:07;;;;;;;9.00;5.47;;;15.70;60.10;;;;;;4193213;28;20056;-64
2023/04/20 13:02:50;;;;;;;6.50;5.68;;;15.60;60.00;;;;;;4189079;28;20047;-64
2023/04/20 13:05:31;;;;;;;6.85;6.18;;;15.50;60.30;;;;;;4192904;28;20129;-64
2023/04/20 13:08:12;;;;;;;7.50;6.05;;;15.50;60.30;;;;;;4192722;28;20418;-64
2023/04/20 13:10:53;;;;;;;7.87;6.47;;;15.50;59.90;;;;;;4193102;28;20059;-64
2023/04/20 13:13:34;;;;;;;6.75;6.22;;;15.50;60.10;;;;;;4193020;28;20047;-64
2023/04/20 13:16:15;;;;;;;6.95;5.78;;;15.40;60.10;;;;;;4192643;28;20059;-65
2023/04/20 13:18:58;;;;;;;6.50;5.85;;;15.40;60.20;;;;;;4192341;28;20071;-64
2023/04/20 13:21:38;;;;;;;7.30;6.60;;;15.40;60.60;;;;;;4185765;28;20201;-64
2023/04/20 13:24:20;;;;;;;7.80;7.00;;;15.30;60.70;;;;;;4191232;28;20629;-64
2023/04/20 13:27:02;;;;;;;9.07;6.65;;;15.30;60.30;;;;;;4191944;28;20521;-64
2023/04/20 13:29:43;;;;;;;7.32;6.63;;;15.30;59.90;;;;;;4183484;28;20137;-63
2023/04/20 13:32:25;;;;;;;6.53;5.65;;;15.20;60.10;;;;;;4191412;28;20051;-64
2023/04/20 13:35:11;;;;;;;7.82;7.13;;;15.30;59.60;;;;;;4191127;28;20063;-63
2023/04/20 13:37:52;;;;;;;7.82;7.03;;;15.20;59.90;;;;;;4192917;28;20055;-64
2023/04/20 13:40:33;;;;;;;7.25;6.65;;;15.20;59.90;;;;;;4176564;28;20044;-63
2023/04/20 13:43:14;;;;;;;7.35;6.10;;;15.20;59.90;;;;;;4175320;28;20051;-63
2023/04/20 13:45:55;;;;;;;8.05;5.90;;;15.20;59.50;;;;;;4190781;28;20050;-63
2023/04/20 13:48:36;;;;;;;6.63;6.10;;;15.20;59.70;;;;;;4175916;28;20052;-63
2023/04/20 13:51:19;;;;;;;7.97;6.60;;;15.20;60.10;;;;;;4176342;28;20056;-64
2023/04/20 13:54:00;;;;;;;7.05;6.43;;;15.20;59.50;;;;;;4176183;28;20048;-64
2023/04/20 13:56:41;;;;;;;7.23;6.27;;;15.20;60.00;;;;;;4184872;28;20079;-64
2023/04/20 13:59:22;;;;;;;7.80;6.38;;;15.20;59.90;;;;;;4181950;28;20113;-67
2023/04/20 14:02:04;;;;;;;7.53;6.30;;;15.20;59.40;;;;;;4190817;28;20117;-68
2023/04/20 14:04:46;;;;;;;6.82;6.15;;;15.20;60.30;;;;;;4153197;28;20098;-68
2023/04/20 14:07:28;;;;;;;6.85;6.20;;;15.20;59.50;;;;;;4177048;28;20063;-67